Echo Valley, Pennsylvania
Current Conditions -  °F | °C
As of 12:58 AM on Thursday 27 Nov 2014 (Local Time) from KMUI Reporting Station
Overcast Overcast  
Wind Chill: 34°   Ceiling: 5500
Heat Index: 34°   Visibility: 10mi
Dew Point: 28°   Wind: 2mph
Humidity: 79%   Direction: NA
Pressure: 29.96"   Gusts: NA
Location:  40.6079°N, 76.4334°W
Report Text: KMUI 270558Z AUTO VRB02KT 10SM FEW019 OVC055 01/M02 A2996 RMK AO2 SLP153 60000 T00111021 10015 20010 52012 $
Loading
Personal Weather Stations






























Interactive Weather Map New forecast layout! Learn more

10-Day Weather Forecast

Advertisements
Track Severe Weather on mobile